sensor_id;sensor_type;location;lat;lon;timestamp;temperature;humidity
13682;DHT22;6913;49.892;7.936;2023-11-19T00:00:27;9.40;99.90
13682;DHT22;6913;49.892;7.936;2023-11-19T00:02:55;9.20;99.90
13682;DHT22;6913;49.892;7.936;2023-11-19T00:05:22;9.30;99.90
13682;DHT22;6913;49.892;7.936;2023-11-19T00:07:49;9.60;99.90
13682;DHT22;6913;49.892;7.936;2023-11-19T00:10:17;9.40;99.90
13682;DHT22;6913;49.892;7.936;2023-11-19T00:12:46;9.40;99.90
13682;DHT22;6913;49.892;7.936;2023-11-19T00:15:13;9.50;99.90
13682;DHT22;6913;49.892;7.936;2023-11-19T00:17:40;9.50;99.90
13682;DHT22;6913;49.892;7.936;2023-11-19T00:20:12;9.90;99.90
13682;DHT22;6913;49.892;7.936;2023-11-19T00:22:39;9.50;99.90
13682;DHT22;6913;49.892;7.936;2023-11-19T00:25:07;9.60;99.90
13682;DHT22;6913;49.892;7.936;2023-11-19T00:27:34;9.50;99.90
13682;DHT22;6913;49.892;7.936;2023-11-19T00:30:03;9.50;99.90
13682;DHT22;6913;49.892;7.936;2023-11-19T00:32:31;9.50;99.90
13682;DHT22;6913;49.892;7.936;2023-11-19T00:34:58;9.60;99.90
13682;DHT22;6913;49.892;7.936;2023-11-19T00:37:26;9.50;99.90
13682;DHT22;6913;49.892;7.936;2023-11-19T00:39:53;9.80;99.90
13682;DHT22;6913;49.892;7.936;2023-11-19T00:42:21;9.60;99.90
13682;DHT22;6913;49.892;7.936;2023-11-19T00:44:49;9.50;99.90
13682;DHT22;6913;49.892;7.936;2023-11-19T00:47:16;9.60;99.90
13682;DHT22;6913;49.892;7.936;2023-11-19T00:49:46;9.60;99.90
13682;DHT22;6913;49.892;7.936;2023-11-19T00:52:14;9.60;99.90
13682;DHT22;6913;49.892;7.936;2023-11-19T00:54:42;9.80;99.90
13682;DHT22;6913;49.892;7.936;2023-11-19T00:57:09;9.50;99.90
13682;DHT22;6913;49.892;7.936;2023-11-19T00:59:36;9.50;99.90
13682;DHT22;6913;49.892;7.936;2023-11-19T01:02:04;9.40;99.90
13682;DHT22;6913;49.892;7.936;2023-11-19T01:04:33;9.40;99.90
13682;DHT22;6913;49.892;7.936;2023-11-19T01:07:01;9.30;99.90
13682;DHT22;6913;49.892;7.936;2023-11-19T01:09:29;9.60;99.90
13682;DHT22;6913;49.892;7.936;2023-11-19T01:11:59;9.80;99.90
13682;DHT22;6913;49.892;7.936;2023-11-19T01:14:26;9.40;99.90
13682;DHT22;6913;49.892;7.936;2023-11-19T01:16:53;9.80;99.90
13682;DHT22;6913;49.892;7.936;2023-11-19T01:19:21;9.50;99.90
13682;DHT22;6913;49.892;7.936;2023-11-19T01:21:48;9.50;99.90
13682;DHT22;6913;49.892;7.936;2023-11-19T01:24:15;9.50;99.90
13682;DHT22;6913;49.892;7.936;2023-11-19T01:26:43;9.50;99.90
13682;DHT22;6913;49.892;7.936;2023-11-19T01:29:12;9.80;99.90
13682;DHT22;6913;49.892;7.936;2023-11-19T01:31:40;9.60;99.90
13682;DHT22;6913;49.892;7.936;2023-11-19T01:34:07;9.50;99.90
13682;DHT22;6913;49.892;7.936;2023-11-19T01:36:34;9.60;99.90
13682;DHT22;6913;49.892;7.936;2023-11-19T01:39:01;9.60;99.90
13682;DHT22;6913;49.892;7.936;2023-11-19T01:41:29;9.60;99.90
13682;DHT22;6913;49.892;7.936;2023-11-19T01:43:56;9.60;99.90
13682;DHT22;6913;49.892;7.936;2023-11-19T01:46:25;9.70;99.90
13682;DHT22;6913;49.892;7.936;2023-11-19T01:48:52;9.70;99.90
13682;DHT22;6913;49.892;7.936;2023-11-19T01:51:21;9.70;99.90
13682;DHT22;6913;49.892;7.936;2023-11-19T01:53:49;9.70;99.90
13682;DHT22;6913;49.892;7.936;2023-11-19T01:56:16;9.70;99.90
13682;DHT22;6913;49.892;7.936;2023-11-19T01:58:44;9.70;99.90
13682;DHT22;6913;49.892;7.936;2023-11-19T02:01:12;9.70;99.90
13682;DHT22;6913;49.892;7.936;2023-11-19T02:03:41;9.70;99.90
13682;DHT22;6913;49.892;7.936;2023-11-19T02:06:08;10.00;99.90
13682;DHT22;6913;49.892;7.936;2023-11-19T02:08:36;9.80;99.90
13682;DHT22;6913;49.892;7.936;2023-11-19T02:11:03;9.80;99.90
13682;DHT22;6913;49.892;7.936;2023-11-19T02:13:32;9.80;99.90
13682;DHT22;6913;49.892;7.936;2023-11-19T02:16:01;9.80;99.90
13682;DHT22;6913;49.892;7.936;2023-11-19T02:18:29;9.80;99.90
13682;DHT22;6913;49.892;7.936;2023-11-19T02:20:58;10.00;99.90
13682;DHT22;6913;49.892;7.936;2023-11-19T02:23:26;9.90;99.90
13682;DHT22;6913;49.892;7.936;2023-11-19T02:26:04;10.20;99.90
13682;DHT22;6913;49.892;7.936;2023-11-19T02:28:34;9.90;99.90
13682;DHT22;6913;49.892;7.936;2023-11-19T02:31:02;9.90;99.90
13682;DHT22;6913;49.892;7.936;2023-11-19T02:33:30;9.90;99.90
13682;DHT22;6913;49.892;7.936;2023-11-19T02:35:57;9.90;99.90
13682;DHT22;6913;49.892;7.936;2023-11-19T02:38:24;9.90;99.90
13682;DHT22;6913;49.892;7.936;2023-11-19T02:40:51;9.90;99.90
13682;DHT22;6913;49.892;7.936;2023-11-19T02:43:18;9.90;99.90
13682;DHT22;6913;49.892;7.936;2023-11-19T02:45:46;9.90;99.90
13682;DHT22;6913;49.892;7.936;2023-11-19T02:48:13;9.90;99.90
13682;DHT22;6913;49.892;7.936;2023-11-19T02:50:41;9.90;99.90
13682;DHT22;6913;49.892;7.936;2023-11-19T02:53:08;10.20;99.90
13682;DHT22;6913;49.892;7.936;2023-11-19T02:55:36;10.10;99.90
13682;DHT22;6913;49.892;7.936;2023-11-19T02:58:03;10.30;99.90
13682;DHT22;6913;49.892;7.936;2023-11-19T03:00:46;10.00;99.90
13682;DHT22;6913;49.892;7.936;2023-11-19T03:03:19;10.00;99.90
13682;DHT22;6913;49.892;7.936;2023-11-19T03:05:48;10.40;99.90
13682;DHT22;6913;49.892;7.936;2023-11-19T03:08:15;9.90;99.90
13682;DHT22;6913;49.892;7.936;2023-11-19T03:10:42;10.10;99.90
13682;DHT22;6913;49.892;7.936;2023-11-19T03:13:12;10.00;99.90
13682;DHT22;6913;49.892;7.936;2023-11-19T03:15:39;9.90;99.90
13682;DHT22;6913;49.892;7.936;2023-11-19T03:18:08;10.00;99.90
13682;DHT22;6913;49.892;7.936;2023-11-19T03:20:35;10.00;99.90
13682;DHT22;6913;49.892;7.936;2023-11-19T03:23:01;10.10;99.90
13682;DHT22;6913;49.892;7.936;2023-11-19T03:25:28;10.10;99.90
13682;DHT22;6913;49.892;7.936;2023-11-19T03:27:59;10.00;99.90
13682;DHT22;6913;49.892;7.936;2023-11-19T03:30:26;9.90;99.90
13682;DHT22;6913;49.892;7.936;2023-11-19T03:32:53;9.90;99.90
13682;DHT22;6913;49.892;7.936;2023-11-19T03:35:22;10.20;99.90
13682;DHT22;6913;49.892;7.936;2023-11-19T03:37:49;10.00;99.90
13682;DHT22;6913;49.892;7.936;2023-11-19T03:40:16;10.00;99.90
13682;DHT22;6913;49.892;7.936;2023-11-19T03:42:44;10.30;99.90
13682;DHT22;6913;49.892;7.936;2023-11-19T03:45:11;10.00;99.90
13682;DHT22;6913;49.892;7.936;2023-11-19T03:47:38;10.00;99.90
13682;DHT22;6913;49.892;7.936;2023-11-19T03:50:06;10.00;99.90
13682;DHT22;6913;49.892;7.936;2023-11-19T03:52:35;10.00;99.90
13682;DHT22;6913;49.892;7.936;2023-11-19T03:55:02;10.00;99.90
13682;DHT22;6913;49.892;7.936;2023-11-19T03:57:30;9.90;99.90
13682;DHT22;6913;49.892;7.936;2023-11-19T03:59:57;10.20;99.90
13682;DHT22;6913;49.892;7.936;2023-11-19T04:02:25;10.00;99.90
13682;DHT22;6913;49.892;7.936;2023-11-19T04:04:53;9.80;99.90
13682;DHT22;6913;49.892;7.936;2023-11-19T04:07:21;9.90;99.90
13682;DHT22;6913;49.892;7.936;2023-11-19T04:09:49;9.80;99.90
13682;DHT22;6913;49.892;7.936;2023-11-19T04:12:16;9.90;99.90
13682;DHT22;6913;49.892;7.936;2023-11-19T04:14:43;9.90;99.90
13682;DHT22;6913;49.892;7.936;2023-11-19T04:17:10;9.90;99.90
13682;DHT22;6913;49.892;7.936;2023-11-19T04:19:37;9.90;99.90
13682;DHT22;6913;49.892;7.936;2023-11-19T04:22:07;9.90;99.90
13682;DHT22;6913;49.892;7.936;2023-11-19T04:24:34;10.10;99.90
13682;DHT22;6913;49.892;7.936;2023-11-19T04:27:02;9.80;99.90
13682;DHT22;6913;49.892;7.936;2023-11-19T04:29:30;9.80;99.90
13682;DHT22;6913;49.892;7.936;2023-11-19T04:31:57;9.90;99.90
13682;DHT22;6913;49.892;7.936;2023-11-19T04:34:26;10.10;99.90
13682;DHT22;6913;49.892;7.936;2023-11-19T04:36:53;10.00;99.90
13682;DHT22;6913;49.892;7.936;2023-11-19T04:39:20;9.80;99.90
13682;DHT22;6913;49.892;7.936;2023-11-19T04:41:48;9.80;99.90
13682;DHT22;6913;49.892;7.936;2023-11-19T04:44:16;10.00;99.90
13682;DHT22;6913;49.892;7.936;2023-11-19T04:46:43;9.90;99.90
13682;DHT22;6913;49.892;7.936;2023-11-19T04:49:11;9.80;99.90
13682;DHT22;6913;49.892;7.936;2023-11-19T04:51:39;9.90;99.90
13682;DHT22;6913;49.892;7.936;2023-11-19T04:54:06;9.90;99.90
13682;DHT22;6913;49.892;7.936;2023-11-19T04:56:35;9.90;99.90
13682;DHT22;6913;49.892;7.936;2023-11-19T04:59:02;10.10;99.90
13682;DHT22;6913;49.892;7.936;2023-11-19T05:01:31;10.00;99.90
13682;DHT22;6913;49.892;7.936;2023-11-19T05:03:57;10.10;99.90
13682;DHT22;6913;49.892;7.936;2023-11-19T05:06:26;10.10;99.90
13682;DHT22;6913;49.892;7.936;2023-11-19T05:08:54;10.40;99.90
13682;DHT22;6913;49.892;7.936;2023-11-19T05:11:20;10.20;99.90
13682;DHT22;6913;49.892;7.936;2023-11-19T05:13:47;10.20;99.90
13682;DHT22;6913;49.892;7.936;2023-11-19T05:16:14;10.30;99.90
13682;DHT22;6913;49.892;7.936;2023-11-19T05:18:42;10.30;99.90
13682;DHT22;6913;49.892;7.936;2023-11-19T05:21:09;10.40;99.90
13682;DHT22;6913;49.892;7.936;2023-11-19T05:23:36;10.40;99.90
13682;DHT22;6913;49.892;7.936;2023-11-19T05:26:04;10.50;99.90
13682;DHT22;6913;49.892;7.936;2023-11-19T05:28:31;10.40;99.90
13682;DHT22;6913;49.892;7.936;2023-11-19T05:30:57;10.40;99.90
13682;DHT22;6913;49.892;7.936;2023-11-19T05:33:24;10.40;99.90
13682;DHT22;6913;49.892;7.936;2023-11-19T05:35:53;10.40;99.90
13682;DHT22;6913;49.892;7.936;2023-11-19T05:38:19;10.30;99.90
13682;DHT22;6913;49.892;7.936;2023-11-19T05:40:47;10.40;99.90
13682;DHT22;6913;49.892;7.936;2023-11-19T05:43:15;10.40;99.90
13682;DHT22;6913;49.892;7.936;2023-11-19T05:45:42;10.40;99.90
13682;DHT22;6913;49.892;7.936;2023-11-19T05:48:09;10.50;99.90
13682;DHT22;6913;49.892;7.936;2023-11-19T05:50:36;10.70;99.90
13682;DHT22;6913;49.892;7.936;2023-11-19T05:53:04;10.40;99.90
13682;DHT22;6913;49.892;7.936;2023-11-19T05:55:35;10.40;99.90
13682;DHT22;6913;49.892;7.936;2023-11-19T05:58:03;10.40;99.90
13682;DHT22;6913;49.892;7.936;2023-11-19T06:00:32;10.40;99.90
13682;DHT22;6913;49.892;7.936;2023-11-19T06:02:59;10.50;99.90
13682;DHT22;6913;49.892;7.936;2023-11-19T06:05:25;10.40;99.90
13682;DHT22;6913;49.892;7.936;2023-11-19T06:07:52;10.40;99.90
13682;DHT22;6913;49.892;7.936;2023-11-19T06:10:20;10.40;99.90
13682;DHT22;6913;49.892;7.936;2023-11-19T06:12:47;10.50;99.90
13682;DHT22;6913;49.892;7.936;2023-11-19T06:15:21;10.50;99.90
13682;DHT22;6913;49.892;7.936;2023-11-19T06:17:48;10.50;99.90
13682;DHT22;6913;49.892;7.936;2023-11-19T06:20:15;10.80;99.90
13682;DHT22;6913;49.892;7.936;2023-11-19T06:22:42;10.50;99.90
13682;DHT22;6913;49.892;7.936;2023-11-19T06:25:11;10.60;99.90
13682;DHT22;6913;49.892;7.936;2023-11-19T06:27:41;10.70;99.90
13682;DHT22;6913;49.892;7.936;2023-11-19T06:30:09;10.70;99.90
13682;DHT22;6913;49.892;7.936;2023-11-19T06:32:37;10.80;99.90
13682;DHT22;6913;49.892;7.936;2023-11-19T06:35:05;10.80;99.90
13682;DHT22;6913;49.892;7.936;2023-11-19T06:37:31;10.80;99.90
13682;DHT22;6913;49.892;7.936;2023-11-19T06:39:58;10.70;99.90
13682;DHT22;6913;49.892;7.936;2023-11-19T06:42:25;10.70;99.90
13682;DHT22;6913;49.892;7.936;2023-11-19T06:44:54;10.90;99.90
13682;DHT22;6913;49.892;7.936;2023-11-19T06:47:22;10.70;99.90
13682;DHT22;6913;49.892;7.936;2023-11-19T06:49:49;10.60;99.90
13682;DHT22;6913;49.892;7.936;2023-11-19T06:52:16;10.60;99.90
13682;DHT22;6913;49.892;7.936;2023-11-19T06:54:43;10.60;99.90
13682;DHT22;6913;49.892;7.936;2023-11-19T06:57:11;10.90;99.90
13682;DHT22;6913;49.892;7.936;2023-11-19T06:59:37;10.50;99.90
13682;DHT22;6913;49.892;7.936;2023-11-19T07:02:06;10.40;99.90
13682;DHT22;6913;49.892;7.936;2023-11-19T07:04:33;10.40;99.90
13682;DHT22;6913;49.892;7.936;2023-11-19T07:07:00;10.40;99.90
13682;DHT22;6913;49.892;7.936;2023-11-19T07:09:27;10.20;99.90
13682;DHT22;6913;49.892;7.936;2023-11-19T07:11:53;10.60;99.90
13682;DHT22;6913;49.892;7.936;2023-11-19T07:14:21;10.30;99.90
13682;DHT22;6913;49.892;7.936;2023-11-19T07:16:49;10.10;99.90
13682;DHT22;6913;49.892;7.936;2023-11-19T07:19:18;10.10;99.90
13682;DHT22;6913;49.892;7.936;2023-11-19T07:21:44;9.90;99.90
13682;DHT22;6913;49.892;7.936;2023-11-19T07:24:11;10.00;99.90
13682;DHT22;6913;49.892;7.936;2023-11-19T07:26:42;10.10;99.90
13682;DHT22;6913;49.892;7.936;2023-11-19T07:29:09;10.60;99.90
13682;DHT22;6913;49.892;7.936;2023-11-19T07:31:36;11.40;99.90
13682;DHT22;6913;49.892;7.936;2023-11-19T07:34:03;11.10;99.90
13682;DHT22;6913;49.892;7.936;2023-11-19T07:36:32;10.90;99.90
13682;DHT22;6913;49.892;7.936;2023-11-19T07:38:59;10.90;99.90
13682;DHT22;6913;49.892;7.936;2023-11-19T07:41:26;10.90;99.90
13682;DHT22;6913;49.892;7.936;2023-11-19T07:43:53;10.70;99.90
13682;DHT22;6913;49.892;7.936;2023-11-19T07:46:20;10.90;99.90
13682;DHT22;6913;49.892;7.936;2023-11-19T07:48:47;11.30;99.90
13682;DHT22;6913;49.892;7.936;2023-11-19T07:51:14;11.50;99.90
13682;DHT22;6913;49.892;7.936;2023-11-19T07:53:42;11.80;99.90
13682;DHT22;6913;49.892;7.936;2023-11-19T07:56:09;11.80;99.90
13682;DHT22;6913;49.892;7.936;2023-11-19T07:58:36;12.00;99.90
13682;DHT22;6913;49.892;7.936;2023-11-19T08:01:03;12.20;99.90
13682;DHT22;6913;49.892;7.936;2023-11-19T08:03:30;12.40;99.90
13682;DHT22;6913;49.892;7.936;2023-11-19T08:05:59;12.60;99.90
13682;DHT22;6913;49.892;7.936;2023-11-19T08:08:26;12.80;99.90
13682;DHT22;6913;49.892;7.936;2023-11-19T08:10:56;12.70;99.90
13682;DHT22;6913;49.892;7.936;2023-11-19T08:13:23;12.90;99.90
13682;DHT22;6913;49.892;7.936;2023-11-19T08:15:51;12.50;99.90
13682;DHT22;6913;49.892;7.936;2023-11-19T08:18:18;12.40;99.90
13682;DHT22;6913;49.892;7.936;2023-11-19T08:20:45;12.40;99.90
13682;DHT22;6913;49.892;7.936;2023-11-19T08:23:14;12.40;99.90
13682;DHT22;6913;49.892;7.936;2023-11-19T08:25:41;12.20;99.90
13682;DHT22;6913;49.892;7.936;2023-11-19T08:28:09;12.20;99.90
13682;DHT22;6913;49.892;7.936;2023-11-19T08:30:36;12.10;99.90
13682;DHT22;6913;49.892;7.936;2023-11-19T08:33:03;12.00;99.90
13682;DHT22;6913;49.892;7.936;2023-11-19T08:35:31;12.00;99.90
13682;DHT22;6913;49.892;7.936;2023-11-19T08:37:58;12.00;99.90
13682;DHT22;6913;49.892;7.936;2023-11-19T08:40:25;12.00;99.90
13682;DHT22;6913;49.892;7.936;2023-11-19T08:42:52;12.00;99.90
13682;DHT22;6913;49.892;7.936;2023-11-19T08:45:20;12.00;99.90
13682;DHT22;6913;49.892;7.936;2023-11-19T08:47:47;12.00;99.90
13682;DHT22;6913;49.892;7.936;2023-11-19T08:50:14;12.10;99.90
13682;DHT22;6913;49.892;7.936;2023-11-19T08:52:41;12.10;99.90
13682;DHT22;6913;49.892;7.936;2023-11-19T08:55:07;12.10;99.90
13682;DHT22;6913;49.892;7.936;2023-11-19T08:57:35;12.30;99.90
13682;DHT22;6913;49.892;7.936;2023-11-19T09:00:02;12.30;99.90
13682;DHT22;6913;49.892;7.936;2023-11-19T09:02:34;12.40;99.90
13682;DHT22;6913;49.892;7.936;2023-11-19T09:05:02;12.50;99.90
13682;DHT22;6913;49.892;7.936;2023-11-19T09:07:29;12.60;99.90
13682;DHT22;6913;49.892;7.936;2023-11-19T09:09:56;12.60;99.90
13682;DHT22;6913;49.892;7.936;2023-11-19T09:12:22;12.60;99.90
13682;DHT22;6913;49.892;7.936;2023-11-19T09:14:49;12.60;99.90
13682;DHT22;6913;49.892;7.936;2023-11-19T09:17:16;12.70;99.90
13682;DHT22;6913;49.892;7.936;2023-11-19T09:19:45;13.10;99.90
13682;DHT22;6913;49.892;7.936;2023-11-19T09:22:12;13.50;99.90
13682;DHT22;6913;49.892;7.936;2023-11-19T09:24:38;13.70;99.90
13682;DHT22;6913;49.892;7.936;2023-11-19T09:27:05;13.90;99.90
13682;DHT22;6913;49.892;7.936;2023-11-19T09:29:32;14.10;99.90
13682;DHT22;6913;49.892;7.936;2023-11-19T09:31:59;14.20;99.90
13682;DHT22;6913;49.892;7.936;2023-11-19T09:34:26;13.80;99.90
13682;DHT22;6913;49.892;7.936;2023-11-19T09:36:54;13.60;99.90
13682;DHT22;6913;49.892;7.936;2023-11-19T09:39:21;13.40;99.90
13682;DHT22;6913;49.892;7.936;2023-11-19T09:41:48;13.20;99.90
13682;DHT22;6913;49.892;7.936;2023-11-19T09:44:15;13.30;99.90
13682;DHT22;6913;49.892;7.936;2023-11-19T09:46:44;13.50;99.90
13682;DHT22;6913;49.892;7.936;2023-11-19T09:49:11;13.50;99.90
13682;DHT22;6913;49.892;7.936;2023-11-19T09:51:39;13.50;99.90
13682;DHT22;6913;49.892;7.936;2023-11-19T09:54:08;13.30;99.90
13682;DHT22;6913;49.892;7.936;2023-11-19T09:56:36;13.30;99.90
13682;DHT22;6913;49.892;7.936;2023-11-19T09:59:04;13.20;99.90
13682;DHT22;6913;49.892;7.936;2023-11-19T10:01:31;13.30;99.90
13682;DHT22;6913;49.892;7.936;2023-11-19T10:03:58;13.10;99.90
13682;DHT22;6913;49.892;7.936;2023-11-19T10:06:25;13.10;99.90
13682;DHT22;6913;49.892;7.936;2023-11-19T10:08:53;13.20;99.90
13682;DHT22;6913;49.892;7.936;2023-11-19T10:11:22;13.30;99.90
13682;DHT22;6913;49.892;7.936;2023-11-19T10:13:49;13.30;99.90
13682;DHT22;6913;49.892;7.936;2023-11-19T10:16:17;13.40;99.90
13682;DHT22;6913;49.892;7.936;2023-11-19T10:18:45;13.50;99.90
13682;DHT22;6913;49.892;7.936;2023-11-19T10:21:12;13.90;99.90
13682;DHT22;6913;49.892;7.936;2023-11-19T10:23:49;13.80;99.90
13682;DHT22;6913;49.892;7.936;2023-11-19T10:26:17;14.10;99.90
13682;DHT22;6913;49.892;7.936;2023-11-19T10:28:46;14.20;99.90
13682;DHT22;6913;49.892;7.936;2023-11-19T10:31:13;14.20;99.90
13682;DHT22;6913;49.892;7.936;2023-11-19T10:33:40;14.20;99.90
13682;DHT22;6913;49.892;7.936;2023-11-19T10:36:08;14.30;99.90
13682;DHT22;6913;49.892;7.936;2023-11-19T10:38:35;14.30;99.90
13682;DHT22;6913;49.892;7.936;2023-11-19T10:41:02;14.30;99.90
13682;DHT22;6913;49.892;7.936;2023-11-19T10:43:30;14.10;99.90
13682;DHT22;6913;49.892;7.936;2023-11-19T10:46:09;14.10;99.90
13682;DHT22;6913;49.892;7.936;2023-11-19T10:48:38;14.10;99.90
13682;DHT22;6913;49.892;7.936;2023-11-19T10:51:07;14.00;99.90
13682;DHT22;6913;49.892;7.936;2023-11-19T10:53:36;14.10;99.90
13682;DHT22;6913;49.892;7.936;2023-11-19T10:56:06;14.10;99.90
13682;DHT22;6913;49.892;7.936;2023-11-19T10:58:36;13.90;99.90
13682;DHT22;6913;49.892;7.936;2023-11-19T11:01:11;13.90;99.90
13682;DHT22;6913;49.892;7.936;2023-11-19T11:03:40;14.20;99.90
13682;DHT22;6913;49.892;7.936;2023-11-19T11:06:08;14.40;99.90
13682;DHT22;6913;49.892;7.936;2023-11-19T11:08:37;14.60;99.90
13682;DHT22;6913;49.892;7.936;2023-11-19T11:11:05;14.70;99.90
13682;DHT22;6913;49.892;7.936;2023-11-19T11:13:33;14.80;99.90
13682;DHT22;6913;49.892;7.936;2023-11-19T11:16:00;14.70;99.90
13682;DHT22;6913;49.892;7.936;2023-11-19T11:18:28;14.70;99.90
13682;DHT22;6913;49.892;7.936;2023-11-19T11:20:59;14.70;99.90
13682;DHT22;6913;49.892;7.936;2023-11-19T11:23:54;14.60;99.90
13682;DHT22;6913;49.892;7.936;2023-11-19T11:26:53;14.60;78.50
13682;DHT22;6913;49.892;7.936;2023-11-19T11:29:29;14.60;99.90
13682;DHT22;6913;49.892;7.936;2023-11-19T11:32:06;14.40;90.00
13682;DHT22;6913;49.892;7.936;2023-11-19T11:34:50;14.30;94.10
13682;DHT22;6913;49.892;7.936;2023-11-19T11:37:26;14.30;68.40
13682;DHT22;6913;49.892;7.936;2023-11-19T11:39:57;14.30;40.30
13682;DHT22;6913;49.892;7.936;2023-11-19T11:42:34;14.20;49.60
13682;DHT22;6913;49.892;7.936;2023-11-19T11:45:03;14.40;55.30
13682;DHT22;6913;49.892;7.936;2023-11-19T11:50:50;14.30;36.10
13682;DHT22;6913;49.892;7.936;2023-11-19T11:53:19;14.30;1.00
13682;DHT22;6913;49.892;7.936;2023-11-19T11:55:55;14.50;37.90
13682;DHT22;6913;49.892;7.936;2023-11-19T11:58:32;14.70;1.00
13682;DHT22;6913;49.892;7.936;2023-11-19T12:01:03;15.00;1.00
13682;DHT22;6913;49.892;7.936;2023-11-19T12:03:31;15.30;2.30
13682;DHT22;6913;49.892;7.936;2023-11-19T12:05:58;15.50;19.90
13682;DHT22;6913;49.892;7.936;2023-11-19T12:08:28;15.90;1.00
13682;DHT22;6913;49.892;7.936;2023-11-19T12:10:56;16.10;1.00
13682;DHT22;6913;49.892;7.936;2023-11-19T12:13:29;16.00;1.00
13682;DHT22;6913;49.892;7.936;2023-11-19T12:16:08;16.30;1.00
13682;DHT22;6913;49.892;7.936;2023-11-19T12:18:39;16.00;99.90
13682;DHT22;6913;49.892;7.936;2023-11-19T12:21:08;16.00;1.00
13682;DHT22;6913;49.892;7.936;2023-11-19T12:23:47;15.80;99.90
13682;DHT22;6913;49.892;7.936;2023-11-19T12:26:41;15.50;1.00
13682;DHT22;6913;49.892;7.936;2023-11-19T12:29:09;15.40;1.00
13682;DHT22;6913;49.892;7.936;2023-11-19T12:31:36;15.40;1.00
13682;DHT22;6913;49.892;7.936;2023-11-19T12:34:07;15.30;1.00
13682;DHT22;6913;49.892;7.936;2023-11-19T12:36:39;15.20;1.00
13682;DHT22;6913;49.892;7.936;2023-11-19T12:39:06;15.30;1.00
13682;DHT22;6913;49.892;7.936;2023-11-19T12:41:49;15.50;1.00
13682;DHT22;6913;49.892;7.936;2023-11-19T12:44:16;15.70;1.00
13682;DHT22;6913;49.892;7.936;2023-11-19T12:46:43;15.70;1.00
13682;DHT22;6913;49.892;7.936;2023-11-19T12:49:11;15.50;1.00
13682;DHT22;6913;49.892;7.936;2023-11-19T12:51:40;15.80;1.00
13682;DHT22;6913;49.892;7.936;2023-11-19T12:54:07;15.30;1.00
13682;DHT22;6913;49.892;7.936;2023-11-19T12:56:34;15.70;1.00
13682;DHT22;6913;49.892;7.936;2023-11-19T12:59:10;15.40;99.90
13682;DHT22;6913;49.892;7.936;2023-11-19T13:01:38;15.30;99.90
13682;DHT22;6913;49.892;7.936;2023-11-19T13:04:16;15.20;99.90
13682;DHT22;6913;49.892;7.936;2023-11-19T13:06:46;15.20;99.90
13682;DHT22;6913;49.892;7.936;2023-11-19T13:09:21;15.50;99.90
13682;DHT22;6913;49.892;7.936;2023-11-19T13:11:48;15.30;99.90
13682;DHT22;6913;49.892;7.936;2023-11-19T13:14:15;15.20;99.90
13682;DHT22;6913;49.892;7.936;2023-11-19T13:16:42;15.30;99.90
13682;DHT22;6913;49.892;7.936;2023-11-19T13:19:11;15.10;99.90
13682;DHT22;6913;49.892;7.936;2023-11-19T13:21:37;15.10;99.90
13682;DHT22;6913;49.892;7.936;2023-11-19T13:24:06;15.10;99.90
13682;DHT22;6913;49.892;7.936;2023-11-19T13:26:33;15.00;99.90
13682;DHT22;6913;49.892;7.936;2023-11-19T13:29:01;14.70;99.90
13682;DHT22;6913;49.892;7.936;2023-11-19T13:31:28;14.60;99.90
13682;DHT22;6913;49.892;7.936;2023-11-19T13:33:54;14.50;99.90
13682;DHT22;6913;49.892;7.936;2023-11-19T13:36:22;14.40;99.90
13682;DHT22;6913;49.892;7.936;2023-11-19T13:38:48;14.30;99.90
13682;DHT22;6913;49.892;7.936;2023-11-19T13:41:17;14.30;99.90
13682;DHT22;6913;49.892;7.936;2023-11-19T13:43:43;14.30;99.90
13682;DHT22;6913;49.892;7.936;2023-11-19T13:46:11;14.30;99.90
13682;DHT22;6913;49.892;7.936;2023-11-19T13:48:37;14.10;99.90
13682;DHT22;6913;49.892;7.936;2023-11-19T13:51:05;14.00;99.90
13682;DHT22;6913;49.892;7.936;2023-11-19T13:53:32;14.00;99.90
13682;DHT22;6913;49.892;7.936;2023-11-19T13:55:58;13.90;99.90
13682;DHT22;6913;49.892;7.936;2023-11-19T13:58:27;13.90;99.90
13682;DHT22;6913;49.892;7.936;2023-11-19T14:00:53;14.00;99.90
13682;DHT22;6913;49.892;7.936;2023-11-19T14:03:20;14.40;99.90
13682;DHT22;6913;49.892;7.936;2023-11-19T14:05:47;14.10;99.90
13682;DHT22;6913;49.892;7.936;2023-11-19T14:08:17;14.10;99.90
13682;DHT22;6913;49.892;7.936;2023-11-19T14:10:44;14.20;99.90
13682;DHT22;6913;49.892;7.936;2023-11-19T14:13:11;14.30;99.90
13682;DHT22;6913;49.892;7.936;2023-11-19T14:15:39;14.50;99.90
13682;DHT22;6913;49.892;7.936;2023-11-19T14:18:06;14.50;99.90
13682;DHT22;6913;49.892;7.936;2023-11-19T14:20:33;14.80;99.90
13682;DHT22;6913;49.892;7.936;2023-11-19T14:23:01;14.60;99.90
13682;DHT22;6913;49.892;7.936;2023-11-19T14:25:28;14.30;99.90
13682;DHT22;6913;49.892;7.936;2023-11-19T14:27:55;14.60;99.90
13682;DHT22;6913;49.892;7.936;2023-11-19T14:30:22;14.20;99.90
13682;DHT22;6913;49.892;7.936;2023-11-19T14:32:50;14.30;99.90
13682;DHT22;6913;49.892;7.936;2023-11-19T14:35:16;14.30;99.90
13682;DHT22;6913;49.892;7.936;2023-11-19T14:37:43;14.10;99.90
13682;DHT22;6913;49.892;7.936;2023-11-19T14:40:11;14.10;99.90
13682;DHT22;6913;49.892;7.936;2023-11-19T14:42:38;14.10;99.90
13682;DHT22;6913;49.892;7.936;2023-11-19T14:45:07;14.00;99.90
13682;DHT22;6913;49.892;7.936;2023-11-19T14:47:37;13.90;99.90
13682;DHT22;6913;49.892;7.936;2023-11-19T14:50:06;13.80;99.90
13682;DHT22;6913;49.892;7.936;2023-11-19T14:52:34;13.70;99.90
13682;DHT22;6913;49.892;7.936;2023-11-19T14:55:01;14.00;99.90
13682;DHT22;6913;49.892;7.936;2023-11-19T14:57:28;13.60;99.90
13682;DHT22;6913;49.892;7.936;2023-11-19T14:59:55;13.60;99.90
13682;DHT22;6913;49.892;7.936;2023-11-19T15:02:22;13.50;99.90
13682;DHT22;6913;49.892;7.936;2023-11-19T15:04:48;13.50;99.90
13682;DHT22;6913;49.892;7.936;2023-11-19T15:07:16;13.50;99.90
13682;DHT22;6913;49.892;7.936;2023-11-19T15:09:43;13.60;99.90
13682;DHT22;6913;49.892;7.936;2023-11-19T15:12:11;13.60;99.90
13682;DHT22;6913;49.892;7.936;2023-11-19T15:14:37;13.60;99.90
13682;DHT22;6913;49.892;7.936;2023-11-19T15:17:04;13.80;99.90
13682;DHT22;6913;49.892;7.936;2023-11-19T15:19:32;13.60;99.90
13682;DHT22;6913;49.892;7.936;2023-11-19T15:21:59;13.50;99.90
13682;DHT22;6913;49.892;7.936;2023-11-19T15:24:31;13.50;99.90
13682;DHT22;6913;49.892;7.936;2023-11-19T15:26:57;13.40;99.90
13682;DHT22;6913;49.892;7.936;2023-11-19T15:29:24;13.60;99.90
13682;DHT22;6913;49.892;7.936;2023-11-19T15:31:51;13.80;99.90
13682;DHT22;6913;49.892;7.936;2023-11-19T15:34:18;13.60;99.90
13682;DHT22;6913;49.892;7.936;2023-11-19T15:36:45;13.60;99.90
13682;DHT22;6913;49.892;7.936;2023-11-19T15:39:12;13.40;99.90
13682;DHT22;6913;49.892;7.936;2023-11-19T15:41:40;13.30;99.90
13682;DHT22;6913;49.892;7.936;2023-11-19T15:44:07;13.20;99.90
13682;DHT22;6913;49.892;7.936;2023-11-19T15:46:34;13.00;99.90
13682;DHT22;6913;49.892;7.936;2023-11-19T15:49:00;13.10;99.90
13682;DHT22;6913;49.892;7.936;2023-11-19T15:51:28;13.40;99.90
13682;DHT22;6913;49.892;7.936;2023-11-19T15:53:54;13.00;99.90
13682;DHT22;6913;49.892;7.936;2023-11-19T15:56:21;12.90;99.90
13682;DHT22;6913;49.892;7.936;2023-11-19T15:58:49;12.80;99.90